OPA Logo
 
ASOS:
At:2021.09.25 0515 UTC
Wind:250° @ 5KT
Viz: 10 mile(s)
Sky: clear
Temp: 59 F (15 C)
DewP: 35 F (2 C)
RH: 41%
Baro: 30.04 in.
ob: KBDN 250515Z AUTO 25005KT 10SM CLR 15/02 A3004 RMK AO2

ASOS: KRDM
At:2021.09.25 0456 UTC
Wind:280° @ 6KT
Viz: 10 mile(s)
Sky: clear
Temp: 64.0 F (17.8 C)
DewP: 37.0 F (2.8 C)
RH: 36%
Baro: 30 in.
ob: KRDM 250456Z AUTO 28006KT 10SM CLR 18/03 A3000 RMK AO2 SLP143 T01780028
Apache-SSL Logo

Valid HTML 4.01!

Central Oregon OPA Chapter

Chapter Officers 2006:

President
Gary E. Miller
109 NW Wilmington Ave.
Bend OR 97701
541 382-8588
gem@rellim.com

Vice President:
Open

Secretary/Treasurer:
Don Wilfong
210 SE Cessna Dr
Bend OR 97702
541 389-1456
dwnw@bendbroadband.com


Web page by: gem@rellim.com